createdAt,value
2022-11-12T00:02:00.846Z,9.83
2022-11-12T00:04:49.364Z,9.80
2022-11-12T00:07:36.482Z,9.81
2022-11-12T00:10:23.581Z,9.77
2022-11-12T00:13:11.398Z,9.70
2022-11-12T00:15:58.362Z,9.65
2022-11-12T00:18:44.981Z,9.50
2022-11-12T00:21:33.139Z,9.63
2022-11-12T00:24:20.197Z,9.60
2022-11-12T00:27:07.212Z,9.61
2022-11-12T00:29:54.172Z,9.52
2022-11-12T00:32:41.403Z,9.47
2022-11-12T00:35:28.908Z,9.04
2022-11-12T00:38:17.281Z,9.25
2022-11-12T00:41:04.681Z,9.26
2022-11-12T00:43:52.116Z,9.36
2022-11-12T00:46:39.687Z,9.36
2022-11-12T00:49:26.860Z,9.31
2022-11-12T00:52:14.232Z,9.30
2022-11-12T00:55:02.373Z,9.29
2022-11-12T00:57:49.191Z,9.26
2022-11-12T01:00:36.244Z,9.25
2022-11-12T01:03:23.178Z,9.23
2022-11-12T01:06:12.138Z,9.23
2022-11-12T01:08:58.868Z,9.24
2022-11-12T01:11:48.218Z,9.22
2022-11-12T01:14:35.522Z,8.87
2022-11-12T01:17:22.678Z,9.21
2022-11-12T01:20:10.125Z,9.20
2022-11-12T01:22:57.184Z,9.14
2022-11-12T01:25:44.076Z,9.11
2022-11-12T01:28:32.393Z,9.10
2022-11-12T01:31:21.437Z,8.80
2022-11-12T01:34:10.356Z,9.02
2022-11-12T01:36:57.394Z,9.00
2022-11-12T01:39:44.407Z,8.98
2022-11-12T01:42:33.162Z,8.94
2022-11-12T01:45:22.535Z,8.81
2022-11-12T01:48:22.424Z,8.72
2022-11-12T01:51:11.254Z,8.92
2022-11-12T01:54:01.392Z,8.97
2022-11-12T01:56:50.164Z,8.96
2022-11-12T01:59:43.018Z,8.93
2022-11-12T02:02:32.285Z,8.73
2022-11-12T02:05:20.248Z,8.85
2022-11-12T02:08:11.113Z,8.84
2022-11-12T02:10:58.157Z,8.75
2022-11-12T02:14:05.348Z,8.76
2022-11-12T02:16:52.115Z,8.75
2022-11-12T02:19:40.533Z,8.76
2022-11-12T02:22:29.138Z,8.74
2022-11-12T02:25:20.001Z,8.70
2022-11-12T02:28:09.256Z,8.66
2022-11-12T02:30:56.341Z,8.63
2022-11-12T02:33:43.302Z,8.64
2022-11-12T02:36:30.557Z,8.61
2022-11-12T02:39:18.897Z,8.59
2022-11-12T02:42:05.926Z,8.59
2022-11-12T02:44:53.402Z,8.59
2022-11-12T02:47:40.579Z,8.57
2022-11-12T02:50:27.469Z,8.51
2022-11-12T02:53:14.857Z,8.51
2022-11-12T02:56:03.496Z,8.53
2022-11-12T02:58:50.254Z,8.51
2022-11-12T03:01:37.383Z,8.48
2022-11-12T03:04:24.166Z,8.48
2022-11-12T03:07:10.960Z,8.48
2022-11-12T03:09:57.633Z,8.52
2022-11-12T03:12:46.577Z,8.47
2022-11-12T03:15:33.433Z,8.38
2022-11-12T03:18:20.138Z,8.30
2022-11-12T03:21:07.691Z,8.34
2022-11-12T03:23:54.914Z,8.37
2022-11-12T03:26:41.902Z,8.34
2022-11-12T03:29:30.129Z,8.31
2022-11-12T03:32:17.468Z,8.29
2022-11-12T03:35:04.260Z,8.28
2022-11-12T03:37:51.286Z,8.23
2022-11-12T03:40:38.821Z,8.21
2022-11-12T03:43:25.637Z,8.21
2022-11-12T03:46:13.827Z,8.21
2022-11-12T03:49:02.461Z,8.19
2022-11-12T03:51:49.154Z,8.20
2022-11-12T03:54:36.289Z,8.20
2022-11-12T03:57:23.257Z,8.11
2022-11-12T04:00:13.041Z,8.11
2022-11-12T04:03:01.289Z,8.10
2022-11-12T04:06:07.561Z,8.00
2022-11-12T04:08:54.373Z,8.06
2022-11-12T04:11:41.179Z,8.03
2022-11-12T04:14:27.982Z,8.02
2022-11-12T04:17:32.819Z,8.01
2022-11-12T04:20:38.818Z,7.95
2022-11-12T04:23:25.761Z,7.89
2022-11-12T04:26:23.855Z,7.91
2022-11-12T04:29:35.042Z,7.84
2022-11-12T04:32:25.509Z,7.67
2022-11-12T04:35:12.280Z,7.88
2022-11-12T04:38:00.399Z,7.89
2022-11-12T04:41:04.265Z,7.86
2022-11-12T04:44:08.528Z,7.85
2022-11-12T04:46:55.556Z,7.84
2022-11-12T04:49:42.709Z,7.85
2022-11-12T04:52:30.367Z,7.83
2022-11-12T04:55:18.992Z,7.80
2022-11-12T04:58:06.000Z,7.73
2022-11-12T05:00:53.208Z,7.76
2022-11-12T05:03:40.185Z,7.79
2022-11-12T05:06:44.415Z,7.78
2022-11-12T05:09:31.609Z,7.71
2022-11-12T05:12:20.322Z,7.70
2022-11-12T05:15:07.787Z,7.70
2022-11-12T05:17:54.787Z,7.66
2022-11-12T05:20:41.771Z,7.64
2022-11-12T05:23:28.930Z,7.64
2022-11-12T05:26:15.845Z,7.62
2022-11-12T05:29:08.563Z,7.64
2022-11-12T05:31:56.055Z,7.63
2022-11-12T05:34:43.282Z,7.59
2022-11-12T05:37:30.336Z,7.60
2022-11-12T05:40:18.037Z,7.57
2022-11-12T05:43:04.918Z,7.75
2022-11-12T05:45:53.557Z,7.68
2022-11-12T05:48:40.597Z,7.56
2022-11-12T05:51:27.572Z,7.54
2022-11-12T05:54:14.410Z,7.55
2022-11-12T05:57:01.271Z,7.58
2022-11-12T05:59:47.922Z,7.61
2022-11-12T06:02:36.524Z,7.59
2022-11-12T06:05:23.296Z,7.54
2022-11-12T06:08:10.932Z,7.51
2022-11-12T06:10:57.589Z,7.51
2022-11-12T06:13:44.548Z,7.49
2022-11-12T06:16:31.504Z,7.46
2022-11-12T06:19:19.659Z,7.41
2022-11-12T06:22:06.596Z,7.38
2022-11-12T06:24:53.387Z,7.36
2022-11-12T06:27:40.470Z,7.35
2022-11-12T06:30:27.332Z,7.33
2022-11-12T06:33:14.580Z,7.29
2022-11-12T06:36:04.937Z,7.29
2022-11-12T06:38:51.742Z,7.26
2022-11-12T06:41:38.593Z,7.29
2022-11-12T06:44:25.652Z,7.33
2022-11-12T06:47:12.434Z,7.34
2022-11-12T06:49:59.479Z,7.35
2022-11-12T06:52:47.310Z,7.38
2022-11-12T06:55:34.128Z,7.41
2022-11-12T06:58:20.935Z,7.43
2022-11-12T07:01:11.952Z,7.40
2022-11-12T07:03:59.218Z,7.31
2022-11-12T07:06:46.035Z,7.36
2022-11-12T07:09:34.420Z,7.38
2022-11-12T07:12:21.630Z,7.40
2022-11-12T07:15:08.846Z,7.46
2022-11-12T07:17:55.725Z,7.56
2022-11-12T07:20:42.722Z,7.63
2022-11-12T07:23:32.488Z,7.74
2022-11-12T07:26:22.528Z,7.88
2022-11-12T07:29:09.222Z,7.95
2022-11-12T07:31:55.946Z,8.05
2022-11-12T07:34:42.934Z,8.15
2022-11-12T07:37:29.762Z,8.33
2022-11-12T07:40:16.909Z,8.52
2022-11-12T07:43:05.206Z,8.77
2022-11-12T07:45:52.294Z,9.05
2022-11-12T07:48:41.484Z,9.07
2022-11-12T07:51:29.853Z,9.45
2022-11-12T07:54:16.936Z,9.67
2022-11-12T07:57:04.039Z,9.91
2022-11-12T07:59:52.025Z,10.12
2022-11-12T08:02:38.840Z,10.26
2022-11-12T08:05:25.681Z,10.43
2022-11-12T08:08:12.814Z,10.65
2022-11-12T08:11:00.762Z,10.88
2022-11-12T08:13:47.523Z,11.11
2022-11-12T08:16:35.621Z,11.32
2022-11-12T08:19:22.816Z,11.49
2022-11-12T08:22:09.514Z,11.68
2022-11-12T08:24:56.264Z,11.75
2022-11-12T08:27:43.120Z,11.89
2022-11-12T08:30:30.884Z,12.02
2022-11-12T08:33:19.202Z,12.16
2022-11-12T08:36:07.345Z,12.29
2022-11-12T08:38:54.676Z,12.44
2022-11-12T08:41:41.537Z,12.59
2022-11-12T08:44:28.266Z,12.72
2022-11-12T08:47:14.925Z,12.87
2022-11-12T08:50:03.120Z,13.02
2022-11-12T08:52:50.470Z,13.12
2022-11-12T08:55:38.197Z,13.19
2022-11-12T08:58:25.527Z,13.06
2022-11-12T09:01:12.454Z,13.36
2022-11-12T09:03:59.364Z,13.41
2022-11-12T09:06:52.673Z,13.44
2022-11-12T09:09:41.032Z,13.47
2022-11-12T09:12:27.868Z,13.51
2022-11-12T09:18:21.764Z,13.58
2022-11-12T09:21:11.326Z,13.67
2022-11-12T09:23:59.297Z,13.74
2022-11-12T09:26:45.997Z,13.81
2022-11-12T09:29:32.975Z,13.88
2022-11-12T09:32:20.115Z,13.97
2022-11-12T09:35:07.842Z,14.01
2022-11-12T09:37:54.733Z,14.05
2022-11-12T09:40:56.136Z,14.11
2022-11-12T09:43:48.948Z,14.15
2022-11-12T09:46:41.580Z,14.18
2022-11-12T09:49:33.136Z,14.31
2022-11-12T09:52:25.583Z,14.37
2022-11-12T09:55:19.234Z,14.46
2022-11-12T09:58:12.344Z,14.52
2022-11-12T10:01:04.512Z,14.61
2022-11-12T10:04:01.238Z,14.47
2022-11-12T10:06:56.493Z,14.68
2022-11-12T10:09:55.711Z,14.70
2022-11-12T10:12:56.343Z,14.79
2022-11-12T10:16:17.289Z,14.82
2022-11-12T10:19:31.198Z,14.87
2022-11-12T10:22:29.334Z,14.93
2022-11-12T10:25:18.830Z,14.98
2022-11-12T10:28:25.951Z,15.04
2022-11-12T10:31:16.303Z,15.09
2022-11-12T10:34:17.201Z,14.99
2022-11-12T10:37:07.010Z,15.19
2022-11-12T10:39:54.557Z,15.25
2022-11-12T10:42:58.263Z,15.27
2022-11-12T10:45:45.386Z,15.34
2022-11-12T10:48:35.197Z,15.42
2022-11-12T10:51:28.124Z,15.50
2022-11-12T10:54:29.381Z,15.57
2022-11-12T10:57:24.856Z,15.64
2022-11-12T11:00:21.494Z,15.71
2022-11-12T11:03:25.073Z,15.78
2022-11-12T11:06:24.073Z,15.83
2022-11-12T11:09:17.572Z,15.90
2022-11-12T11:12:05.032Z,15.97
2022-11-12T11:15:08.485Z,16.06
2022-11-12T11:17:56.397Z,16.15
2022-11-12T11:20:48.803Z,16.25
2022-11-12T11:23:48.260Z,16.34
2022-11-12T11:26:48.930Z,16.40
2022-11-12T11:30:07.106Z,16.32
2022-11-12T11:33:17.048Z,16.52
2022-11-12T11:36:16.158Z,16.56
2022-11-12T11:39:13.478Z,16.64
2022-11-12T11:42:14.848Z,16.69
2022-11-12T11:45:13.752Z,16.72
2022-11-12T11:48:14.190Z,16.79
2022-11-12T11:51:09.079Z,16.85
2022-11-12T11:54:04.244Z,16.87
2022-11-12T11:56:57.449Z,16.92
2022-11-12T11:59:57.163Z,16.99
2022-11-12T12:03:07.197Z,17.03
2022-11-12T12:06:10.041Z,17.06
2022-11-12T12:09:08.077Z,17.08
2022-11-12T12:12:02.687Z,17.15
2022-11-12T12:14:59.426Z,17.20
2022-11-12T12:18:01.708Z,17.23
2022-11-12T12:20:58.735Z,17.24
2022-11-12T12:23:50.300Z,17.28
2022-11-12T12:26:41.873Z,17.34
2022-11-12T12:29:35.851Z,17.38
2022-11-12T12:32:28.322Z,17.44
2022-11-12T12:35:23.977Z,17.46
2022-11-12T12:38:19.048Z,17.50
2022-11-12T12:41:14.997Z,17.31
2022-11-12T12:44:05.877Z,17.58
2022-11-12T12:46:58.559Z,17.61
2022-11-12T12:49:49.075Z,17.67
2022-11-12T12:53:03.774Z,17.70
2022-11-12T12:55:52.677Z,17.73
2022-11-12T12:58:45.265Z,17.80
2022-11-12T13:01:35.391Z,17.64
2022-11-12T13:04:51.824Z,17.89
2022-11-12T13:07:43.069Z,17.90
2022-11-12T13:10:48.153Z,17.94
2022-11-12T13:13:36.701Z,17.94
2022-11-12T13:16:57.800Z,17.95
2022-11-12T13:20:08.045Z,17.93
2022-11-12T13:22:55.281Z,17.94
2022-11-12T13:25:42.246Z,17.99
2022-11-12T13:28:29.385Z,18.03
2022-11-12T13:31:29.163Z,18.02
2022-11-12T13:34:24.207Z,18.03
2022-11-12T13:37:21.684Z,17.98
2022-11-12T13:40:14.373Z,18.01
2022-11-12T13:43:08.944Z,18.01
2022-11-12T13:46:00.533Z,18.04
2022-11-12T13:48:49.711Z,18.05
2022-11-12T13:51:41.100Z,17.83
2022-11-12T13:54:35.055Z,18.06
2022-11-12T13:57:30.331Z,17.43
2022-11-12T14:00:26.524Z,18.09
2022-11-12T14:03:19.711Z,18.11
2022-11-12T14:06:16.492Z,18.10
2022-11-12T14:09:34.316Z,18.09
2022-11-12T14:12:43.616Z,18.09
2022-11-12T14:15:43.801Z,18.10
2022-11-12T14:18:43.236Z,18.11
2022-11-12T14:21:31.134Z,18.10
2022-11-12T14:24:17.961Z,18.10
2022-11-12T14:27:04.749Z,18.09
2022-11-12T14:30:07.116Z,17.62
2022-11-12T14:32:58.614Z,18.09
2022-11-12T14:35:46.153Z,18.07
2022-11-12T14:38:38.230Z,18.06
2022-11-12T14:41:27.351Z,18.03
2022-11-12T14:44:19.547Z,18.01
2022-11-12T14:47:07.899Z,17.97
2022-11-12T14:49:55.181Z,17.94
2022-11-12T14:52:46.403Z,17.77
2022-11-12T14:55:37.522Z,17.91
2022-11-12T14:58:27.107Z,17.87
2022-11-12T15:04:42.113Z,17.76
2022-11-12T15:07:30.880Z,17.37
2022-11-12T15:10:35.214Z,17.68
2022-11-12T15:13:25.164Z,17.62
2022-11-12T15:16:19.857Z,17.56
2022-11-12T15:19:21.019Z,17.52
2022-11-12T15:22:20.958Z,17.44
2022-11-12T15:25:13.562Z,17.39
2022-11-12T15:28:14.288Z,17.32
2022-11-12T15:31:03.762Z,17.29
2022-11-12T15:33:50.513Z,17.26
2022-11-12T15:36:37.482Z,17.23
2022-11-12T15:39:27.525Z,17.17
2022-11-12T15:42:18.274Z,17.16
2022-11-12T15:45:13.617Z,17.10
2022-11-12T15:48:00.664Z,17.02
2022-11-12T15:50:48.343Z,16.93
2022-11-12T15:53:35.397Z,16.98
2022-11-12T15:56:23.624Z,16.90
2022-11-12T15:59:16.218Z,16.83
2022-11-12T16:02:03.137Z,16.73
2022-11-12T16:04:50.018Z,16.68
2022-11-12T16:07:37.047Z,16.62
2022-11-12T16:10:24.764Z,16.32
2022-11-12T16:13:17.766Z,16.42
2022-11-12T16:16:08.623Z,16.18
2022-11-12T16:18:55.722Z,16.22
2022-11-12T16:21:42.897Z,16.14
2022-11-12T16:24:29.675Z,16.01
2022-11-12T16:27:17.889Z,15.92
2022-11-12T16:30:07.887Z,15.88
2022-11-12T16:32:54.965Z,15.82
2022-11-12T16:35:42.313Z,15.76
2022-11-12T16:38:30.142Z,15.67
2022-11-12T16:41:16.814Z,15.55
2022-11-12T16:44:03.654Z,15.45
2022-11-12T16:46:51.832Z,15.38
2022-11-12T16:49:39.103Z,15.26
2022-11-12T16:52:26.029Z,15.17
2022-11-12T16:55:12.920Z,15.13
2022-11-12T16:57:59.812Z,15.10
2022-11-12T17:00:51.183Z,15.06
2022-11-12T17:03:39.173Z,14.96
2022-11-12T17:06:34.041Z,14.93
2022-11-12T17:09:20.869Z,14.84
2022-11-12T17:12:07.894Z,14.82
2022-11-12T17:14:54.704Z,14.73
2022-11-12T17:17:41.813Z,14.63
2022-11-12T17:20:30.077Z,14.56
2022-11-12T17:23:17.043Z,14.50
2022-11-12T17:26:06.011Z,14.42
2022-11-12T17:29:00.091Z,14.32
2022-11-12T17:31:49.313Z,14.22
2022-11-12T17:34:36.537Z,14.18
2022-11-12T17:37:25.415Z,14.13
2022-11-12T17:40:12.926Z,14.08
2022-11-12T17:43:00.653Z,14.02
2022-11-12T17:45:51.146Z,13.95
2022-11-12T17:48:39.091Z,13.89
2022-11-12T17:51:27.818Z,13.88
2022-11-12T17:54:16.281Z,13.85
2022-11-12T17:57:03.149Z,13.84
2022-11-12T17:59:49.924Z,13.84
2022-11-12T18:02:36.559Z,13.75
2022-11-12T18:05:23.473Z,13.67
2022-11-12T18:08:10.204Z,13.50
2022-11-12T18:10:58.549Z,13.36
2022-11-12T18:13:45.296Z,13.26
2022-11-12T18:16:31.990Z,13.19
2022-11-12T18:19:19.340Z,13.16
2022-11-12T18:22:06.201Z,13.14
2022-11-12T18:24:53.158Z,13.16
2022-11-12T18:27:41.256Z,13.14
2022-11-12T18:30:28.278Z,13.05
2022-11-12T18:33:15.585Z,13.00
2022-11-12T18:36:03.609Z,12.86
2022-11-12T18:38:50.912Z,12.78
2022-11-12T18:41:37.970Z,12.69
2022-11-12T18:44:26.417Z,12.63
2022-11-12T18:47:14.193Z,12.58
2022-11-12T18:50:05.663Z,12.55
2022-11-12T18:52:55.383Z,12.52
2022-11-12T18:55:42.228Z,12.46
2022-11-12T18:58:35.168Z,12.43
2022-11-12T19:01:25.837Z,12.42
2022-11-12T19:04:12.930Z,12.13
2022-11-12T19:06:59.841Z,12.31
2022-11-12T19:09:46.657Z,12.31
2022-11-12T19:12:33.550Z,12.35
2022-11-12T19:15:25.545Z,12.37
2022-11-12T19:18:15.271Z,12.32
2022-11-12T19:21:03.794Z,12.26
2022-11-12T19:23:53.989Z,12.23
2022-11-12T19:26:41.445Z,12.18
2022-11-12T19:29:28.197Z,12.16
2022-11-12T19:32:14.963Z,12.14
2022-11-12T19:35:03.448Z,12.17
2022-11-12T19:37:50.789Z,12.17
2022-11-12T19:40:37.827Z,12.16
2022-11-12T19:43:25.012Z,12.11
2022-11-12T19:46:13.005Z,12.08
2022-11-12T19:49:00.359Z,12.06
2022-11-12T19:51:48.527Z,12.07
2022-11-12T19:54:35.354Z,12.08
2022-11-12T19:57:23.021Z,12.07
2022-11-12T20:00:11.397Z,12.07
2022-11-12T20:02:59.636Z,12.06
2022-11-12T20:05:46.755Z,12.03
2022-11-12T20:08:35.325Z,11.86
2022-11-12T20:11:22.516Z,11.76
2022-11-12T20:14:09.230Z,11.71
2022-11-12T20:16:56.282Z,11.68
2022-11-12T20:19:43.314Z,11.65
2022-11-12T20:22:32.390Z,11.63
2022-11-12T20:25:20.764Z,11.57
2022-11-12T20:28:09.957Z,11.57
2022-11-12T20:31:01.911Z,11.54
2022-11-12T20:33:50.039Z,11.54
2022-11-12T20:36:37.754Z,11.51
2022-11-12T20:39:24.806Z,11.45
2022-11-12T20:42:13.274Z,11.39
2022-11-12T20:45:00.100Z,11.40
2022-11-12T20:47:47.084Z,11.39
2022-11-12T20:50:34.145Z,11.35
2022-11-12T20:53:21.157Z,11.30
2022-11-12T20:56:10.326Z,11.25
2022-11-12T20:58:58.673Z,11.23
2022-11-12T21:01:45.528Z,11.20
2022-11-12T21:04:32.452Z,11.20
2022-11-12T21:07:19.277Z,11.23
2022-11-12T21:10:06.789Z,11.24
2022-11-12T21:12:53.529Z,11.25
2022-11-12T21:15:46.033Z,11.25
2022-11-12T21:18:35.386Z,11.14
2022-11-12T21:21:23.290Z,11.06
2022-11-12T21:24:14.327Z,11.02
2022-11-12T21:27:06.248Z,10.94
2022-11-12T21:29:53.139Z,10.95
2022-11-12T21:32:41.519Z,11.02
2022-11-12T21:35:28.286Z,11.03
2022-11-12T21:38:15.141Z,10.97
2022-11-12T21:41:06.052Z,10.95
2022-11-12T21:43:52.793Z,10.92
2022-11-12T21:46:40.573Z,10.86
2022-11-12T21:49:28.903Z,10.81
2022-11-12T21:52:16.237Z,10.77
2022-11-12T21:55:03.323Z,10.78
2022-11-12T21:57:50.112Z,10.76
2022-11-12T22:00:42.047Z,10.75
2022-11-12T22:03:31.502Z,10.71
2022-11-12T22:06:21.279Z,10.79
2022-11-12T22:09:08.234Z,10.78
2022-11-12T22:11:55.206Z,10.85
2022-11-12T22:14:43.197Z,10.81
2022-11-12T22:17:30.268Z,10.89
2022-11-12T22:20:17.730Z,10.93
2022-11-12T22:23:06.120Z,10.93
2022-11-12T22:25:54.430Z,10.86
2022-11-12T22:28:41.538Z,10.60
2022-11-12T22:31:29.669Z,10.80
2022-11-12T22:34:16.521Z,10.78
2022-11-12T22:37:03.636Z,10.79
2022-11-12T22:39:52.138Z,10.89
2022-11-12T22:42:39.151Z,10.84
2022-11-12T22:45:25.729Z,10.90
2022-11-12T22:48:12.488Z,10.92
2022-11-12T22:51:00.681Z,10.93
2022-11-12T22:53:47.782Z,10.91
2022-11-12T22:56:36.906Z,10.92
2022-11-12T22:59:24.054Z,10.83
2022-11-12T23:02:10.814Z,10.77
2022-11-12T23:04:57.812Z,10.74
2022-11-12T23:07:44.704Z,10.61
2022-11-12T23:10:32.071Z,11.52
2022-11-12T23:13:20.463Z,11.14
2022-11-12T23:16:08.589Z,10.94
2022-11-12T23:18:55.988Z,10.82
2022-11-12T23:21:43.100Z,10.76
2022-11-12T23:24:29.846Z,10.72
2022-11-12T23:27:17.075Z,10.71
2022-11-12T23:30:06.138Z,10.70
2022-11-12T23:32:52.764Z,10.64
2022-11-12T23:35:39.882Z,10.56
2022-11-12T23:38:27.147Z,10.46
2022-11-12T23:41:17.089Z,10.38
2022-11-12T23:44:04.323Z,10.30
2022-11-12T23:46:52.713Z,10.24
2022-11-12T23:49:39.871Z,10.19
2022-11-12T23:52:26.919Z,10.19
2022-11-12T23:55:13.810Z,10.18
2022-11-12T23:58:01.321Z,10.13
